sensor_id;sensor_type;location;lat;lon;timestamp;pressure;altitude;pressure_sealevel;temperature;humidity
45793;BME280;31495;42.740;22.908;2023-03-21T00:00:20;92978.06;;;11.25;49.81
45793;BME280;31495;42.740;22.908;2023-03-21T00:01:19;92957.09;;;11.14;50.03
45793;BME280;31495;42.740;22.908;2023-03-21T00:02:19;92971.28;;;11.12;50.23
45793;BME280;31495;42.740;22.908;2023-03-21T00:03:18;92959.53;;;11.09;50.19
45793;BME280;31495;42.740;22.908;2023-03-21T00:04:19;92942.13;;;10.98;50.07
45793;BME280;31495;42.740;22.908;2023-03-21T00:05:19;92946.97;;;10.94;50.40
45793;BME280;31495;42.740;22.908;2023-03-21T00:06:19;92960.81;;;11.00;50.52
45793;BME280;31495;42.740;22.908;2023-03-21T00:07:19;92952.78;;;10.90;50.42
45793;BME280;31495;42.740;22.908;2023-03-21T00:08:20;92976.38;;;11.00;50.36
45793;BME280;31495;42.740;22.908;2023-03-21T00:09:20;92984.28;;;11.05;50.90
45793;BME280;31495;42.740;22.908;2023-03-21T00:10:21;92950.13;;;10.78;50.85
45793;BME280;31495;42.740;22.908;2023-03-21T00:11:20;92982.84;;;10.91;50.88
45793;BME280;31495;42.740;22.908;2023-03-21T00:12:20;92943.56;;;10.75;50.71
45793;BME280;31495;42.740;22.908;2023-03-21T00:13:19;92957.47;;;10.81;50.75
45793;BME280;31495;42.740;22.908;2023-03-21T00:14:18;92974.13;;;10.85;51.02
45793;BME280;31495;42.740;22.908;2023-03-21T00:15:18;92941.06;;;10.69;50.55
45793;BME280;31495;42.740;22.908;2023-03-21T00:16:18;92953.34;;;10.73;50.70
45793;BME280;31495;42.740;22.908;2023-03-21T00:17:17;92943.06;;;10.66;50.72
45793;BME280;31495;42.740;22.908;2023-03-21T00:18:21;92947.19;;;10.74;50.93
45793;BME280;31495;42.740;22.908;2023-03-21T00:19:21;92936.50;;;10.64;50.91
45793;BME280;31495;42.740;22.908;2023-03-21T00:20:23;92979.09;;;10.87;51.34
45793;BME280;31495;42.740;22.908;2023-03-21T00:21:24;92972.41;;;10.79;51.51
45793;BME280;31495;42.740;22.908;2023-03-21T00:22:27;92969.88;;;10.72;51.84
45793;BME280;31495;42.740;22.908;2023-03-21T00:23:27;92965.38;;;10.68;51.81
45793;BME280;31495;42.740;22.908;2023-03-21T00:24:27;92955.09;;;10.61;51.87
45793;BME280;31495;42.740;22.908;2023-03-21T00:25:27;92965.94;;;10.70;52.07
45793;BME280;31495;42.740;22.908;2023-03-21T00:26:27;92926.66;;;10.36;51.97
45793;BME280;31495;42.740;22.908;2023-03-21T00:27:27;92929.91;;;10.24;52.40
45793;BME280;31495;42.740;22.908;2023-03-21T00:28:27;92964.53;;;10.48;52.20
45793;BME280;31495;42.740;22.908;2023-03-21T00:29:26;92932.41;;;10.31;52.21
45793;BME280;31495;42.740;22.908;2023-03-21T00:30:25;92952.09;;;10.39;52.34
45793;BME280;31495;42.740;22.908;2023-03-21T00:31:25;92956.31;;;10.33;52.42
45793;BME280;31495;42.740;22.908;2023-03-21T00:32:25;92941.06;;;10.18;52.69
45793;BME280;31495;42.740;22.908;2023-03-21T00:33:25;92956.56;;;10.25;52.71
45793;BME280;31495;42.740;22.908;2023-03-21T00:34:25;92943.94;;;10.10;53.01
45793;BME280;31495;42.740;22.908;2023-03-21T00:35:25;92915.88;;;9.88;53.30
45793;BME280;31495;42.740;22.908;2023-03-21T00:36:25;92968.53;;;10.19;53.46
45793;BME280;31495;42.740;22.908;2023-03-21T00:37:24;92951.06;;;10.15;53.44
45793;BME280;31495;42.740;22.908;2023-03-21T00:38:26;92940.56;;;10.09;53.70
45793;BME280;31495;42.740;22.908;2023-03-21T00:39:26;92925.94;;;9.97;53.66
45793;BME280;31495;42.740;22.908;2023-03-21T00:40:26;92950.47;;;10.12;53.08
45793;BME280;31495;42.740;22.908;2023-03-21T00:41:25;92949.09;;;10.10;52.84
45793;BME280;31495;42.740;22.908;2023-03-21T00:42:24;92933.28;;;10.00;53.35
45793;BME280;31495;42.740;22.908;2023-03-21T00:43:25;92935.13;;;9.92;53.41
45793;BME280;31495;42.740;22.908;2023-03-21T00:44:28;92966.78;;;10.13;53.46
45793;BME280;31495;42.740;22.908;2023-03-21T00:45:35;92941.09;;;9.93;53.34
45793;BME280;31495;42.740;22.908;2023-03-21T00:46:35;92916.13;;;9.80;53.51
45793;BME280;31495;42.740;22.908;2023-03-21T00:47:35;92933.13;;;9.94;53.42
45793;BME280;31495;42.740;22.908;2023-03-21T00:48:35;92922.16;;;9.74;53.70
45793;BME280;31495;42.740;22.908;2023-03-21T00:49:35;92926.81;;;9.84;53.54
45793;BME280;31495;42.740;22.908;2023-03-21T00:50:37;92961.81;;;10.11;53.54
45793;BME280;31495;42.740;22.908;2023-03-21T00:51:37;92931.97;;;9.90;53.40
45793;BME280;31495;42.740;22.908;2023-03-21T00:52:36;92905.88;;;9.67;53.65
45793;BME280;31495;42.740;22.908;2023-03-21T00:53:36;92913.22;;;9.70;53.74
45793;BME280;31495;42.740;22.908;2023-03-21T00:54:36;92930.09;;;9.72;53.88
45793;BME280;31495;42.740;22.908;2023-03-21T00:55:36;92939.59;;;9.79;54.00
45793;BME280;31495;42.740;22.908;2023-03-21T00:56:38;92939.78;;;9.77;54.17
45793;BME280;31495;42.740;22.908;2023-03-21T00:57:37;92918.22;;;9.65;53.83
45793;BME280;31495;42.740;22.908;2023-03-21T00:58:37;92932.69;;;9.72;54.10
45793;BME280;31495;42.740;22.908;2023-03-21T00:59:36;92930.31;;;9.71;53.80
45793;BME280;31495;42.740;22.908;2023-03-21T01:00:36;92963.72;;;9.98;53.86
45793;BME280;31495;42.740;22.908;2023-03-21T01:01:36;92935.22;;;9.79;53.76
45793;BME280;31495;42.740;22.908;2023-03-21T01:02:35;92936.59;;;9.82;53.74
45793;BME280;31495;42.740;22.908;2023-03-21T01:03:36;92919.59;;;9.67;53.65
45793;BME280;31495;42.740;22.908;2023-03-21T01:04:40;92920.56;;;9.73;53.71
45793;BME280;31495;42.740;22.908;2023-03-21T01:05:43;92951.63;;;9.91;53.64
45793;BME280;31495;42.740;22.908;2023-03-21T01:07:02;92934.38;;;9.85;53.49
45793;BME280;31495;42.740;22.908;2023-03-21T01:08:01;92927.84;;;9.83;53.70
45793;BME280;31495;42.740;22.908;2023-03-21T01:09:01;92917.34;;;9.78;53.71
45793;BME280;31495;42.740;22.908;2023-03-21T01:10:00;92958.50;;;10.04;53.41
45793;BME280;31495;42.740;22.908;2023-03-21T01:11:05;92957.50;;;10.05;53.58
45793;BME280;31495;42.740;22.908;2023-03-21T01:12:05;92950.31;;;10.07;53.81
45793;BME280;31495;42.740;22.908;2023-03-21T01:13:04;92945.78;;;10.03;53.73
45793;BME280;31495;42.740;22.908;2023-03-21T01:14:04;92943.16;;;10.09;53.48
45793;BME280;31495;42.740;22.908;2023-03-21T01:15:03;92903.75;;;9.89;53.43
45793;BME280;31495;42.740;22.908;2023-03-21T01:16:05;92955.59;;;10.19;53.28
45793;BME280;31495;42.740;22.908;2023-03-21T01:17:05;92935.81;;;10.06;53.40
45793;BME280;31495;42.740;22.908;2023-03-21T01:18:04;92919.94;;;10.03;53.39
45793;BME280;31495;42.740;22.908;2023-03-21T01:19:05;92942.31;;;10.16;53.24
45793;BME280;31495;42.740;22.908;2023-03-21T01:20:06;92910.66;;;9.95;53.31
45793;BME280;31495;42.740;22.908;2023-03-21T01:21:11;92935.53;;;10.15;53.07
45793;BME280;31495;42.740;22.908;2023-03-21T01:22:11;92927.38;;;10.18;52.90
45793;BME280;31495;42.740;22.908;2023-03-21T01:23:13;92945.34;;;10.31;52.96
45793;BME280;31495;42.740;22.908;2023-03-21T01:24:14;92912.69;;;10.11;53.08
45793;BME280;31495;42.740;22.908;2023-03-21T01:25:13;92937.44;;;10.26;53.08
45793;BME280;31495;42.740;22.908;2023-03-21T01:26:14;92914.50;;;10.11;53.25
45793;BME280;31495;42.740;22.908;2023-03-21T01:27:13;92904.53;;;10.15;53.02
45793;BME280;31495;42.740;22.908;2023-03-21T01:28:13;92933.66;;;10.28;53.22
45793;BME280;31495;42.740;22.908;2023-03-21T01:29:13;92908.69;;;10.16;52.79
45793;BME280;31495;42.740;22.908;2023-03-21T01:30:13;92903.09;;;10.19;52.79
45793;BME280;31495;42.740;22.908;2023-03-21T01:31:14;92910.06;;;10.18;52.73
45793;BME280;31495;42.740;22.908;2023-03-21T01:32:14;92876.06;;;9.96;52.98
45793;BME280;31495;42.740;22.908;2023-03-21T01:33:14;92929.31;;;10.22;53.24
45793;BME280;31495;42.740;22.908;2023-03-21T01:34:14;92931.91;;;10.22;53.31
45793;BME280;31495;42.740;22.908;2023-03-21T01:35:15;92895.53;;;9.99;53.12
45793;BME280;31495;42.740;22.908;2023-03-21T01:36:17;92895.53;;;9.99;53.13
45793;BME280;31495;42.740;22.908;2023-03-21T01:37:17;92928.91;;;10.25;52.45
45793;BME280;31495;42.740;22.908;2023-03-21T01:38:18;92929.53;;;10.21;52.25
45793;BME280;31495;42.740;22.908;2023-03-21T01:39:17;92906.44;;;10.01;52.66
45793;BME280;31495;42.740;22.908;2023-03-21T01:40:22;92933.56;;;10.17;53.06
45793;BME280;31495;42.740;22.908;2023-03-21T01:41:27;92931.91;;;10.22;52.89
45793;BME280;31495;42.740;22.908;2023-03-21T01:42:26;92909.47;;;10.16;52.56
45793;BME280;31495;42.740;22.908;2023-03-21T01:43:33;92934.91;;;10.19;52.46
45793;BME280;31495;42.740;22.908;2023-03-21T01:44:51;92913.78;;;10.04;52.81
45793;BME280;31495;42.740;22.908;2023-03-21T01:47:09;92927.63;;;10.09;52.59
45793;BME280;31495;42.740;22.908;2023-03-21T01:48:08;92942.09;;;10.17;52.50
45793;BME280;31495;42.740;22.908;2023-03-21T01:49:19;92933.28;;;10.25;52.39
45793;BME280;31495;42.740;22.908;2023-03-21T01:50:23;92923.69;;;10.07;52.30
45793;BME280;31495;42.740;22.908;2023-03-21T01:51:25;92926.66;;;10.10;52.89
45793;BME280;31495;42.740;22.908;2023-03-21T01:52:26;92937.72;;;10.18;52.93
45793;BME280;31495;42.740;22.908;2023-03-21T01:53:29;92914.75;;;10.03;53.12
45793;BME280;31495;42.740;22.908;2023-03-21T01:54:34;92930.59;;;10.13;52.80
45793;BME280;31495;42.740;22.908;2023-03-21T01:55:36;92858.25;;;9.63;52.87
45793;BME280;31495;42.740;22.908;2023-03-21T01:56:38;92913.41;;;10.00;52.68
45793;BME280;31495;42.740;22.908;2023-03-21T01:57:42;92929.81;;;10.12;52.92
45793;BME280;31495;42.740;22.908;2023-03-21T01:58:44;92919.88;;;10.09;52.99
45793;BME280;31495;42.740;22.908;2023-03-21T01:59:47;92885.66;;;9.89;52.86
45793;BME280;31495;42.740;22.908;2023-03-21T02:00:49;92886.09;;;9.86;53.06
45793;BME280;31495;42.740;22.908;2023-03-21T02:01:50;92920.31;;;10.06;53.07
45793;BME280;31495;42.740;22.908;2023-03-21T02:02:50;92873.69;;;9.69;53.35
45793;BME280;31495;42.740;22.908;2023-03-21T02:03:53;92886.91;;;9.80;53.27
45793;BME280;31495;42.740;22.908;2023-03-21T02:04:54;92919.84;;;9.91;53.29
45793;BME280;31495;42.740;22.908;2023-03-21T02:06:02;92908.13;;;9.88;52.99
45793;BME280;31495;42.740;22.908;2023-03-21T02:07:14;92899.78;;;9.86;52.80
45793;BME280;31495;42.740;22.908;2023-03-21T02:08:16;92898.63;;;9.82;52.88
45793;BME280;31495;42.740;22.908;2023-03-21T02:09:19;92890.88;;;9.82;53.26
45793;BME280;31495;42.740;22.908;2023-03-21T02:10:20;92866.25;;;9.54;53.50
45793;BME280;31495;42.740;22.908;2023-03-21T02:11:20;92903.81;;;9.82;53.36
45793;BME280;31495;42.740;22.908;2023-03-21T02:12:20;92891.16;;;9.74;53.24
45793;BME280;31495;42.740;22.908;2023-03-21T02:13:20;92890.50;;;9.79;53.14
45793;BME280;31495;42.740;22.908;2023-03-21T02:14:19;92854.53;;;9.52;53.04
45793;BME280;31495;42.740;22.908;2023-03-21T02:15:19;92892.72;;;9.75;53.47
45793;BME280;31495;42.740;22.908;2023-03-21T02:16:28;92879.78;;;9.75;53.13
45793;BME280;31495;42.740;22.908;2023-03-21T02:25:33;92909.34;;;9.86;53.07
45793;BME280;31495;42.740;22.908;2023-03-21T02:28:13;92872.31;;;9.67;52.44
45793;BME280;31495;42.740;22.908;2023-03-21T02:35:15;92910.91;;;9.87;52.71
45793;BME280;31495;42.740;22.908;2023-03-21T02:37:34;92912.19;;;9.78;53.20
45793;BME280;31495;42.740;22.908;2023-03-21T02:38:46;92916.13;;;9.80;53.33
45793;BME280;31495;42.740;22.908;2023-03-21T02:40:05;92903.84;;;9.75;53.04
45793;BME280;31495;42.740;22.908;2023-03-21T02:45:40;92916.72;;;9.82;52.95
45793;BME280;31495;42.740;22.908;2023-03-21T02:46:37;92873.59;;;9.51;53.12
45793;BME280;31495;42.740;22.908;2023-03-21T02:47:47;92893.59;;;9.62;52.95
45793;BME280;31495;42.740;22.908;2023-03-21T02:48:59;92885.91;;;9.55;52.87
45793;BME280;31495;42.740;22.908;2023-03-21T02:51:01;92924.53;;;9.69;53.50
45793;BME280;31495;42.740;22.908;2023-03-21T02:52:02;92908.94;;;9.57;53.84
45793;BME280;31495;42.740;22.908;2023-03-21T02:53:07;92930.69;;;9.74;53.56
45793;BME280;31495;42.740;22.908;2023-03-21T02:54:12;92916.78;;;9.69;53.43
45793;BME280;31495;42.740;22.908;2023-03-21T02:55:16;92923.31;;;9.78;53.35
45793;BME280;31495;42.740;22.908;2023-03-21T02:56:18;92901.75;;;9.59;53.56
45793;BME280;31495;42.740;22.908;2023-03-21T02:57:19;92908.56;;;9.53;53.83
45793;BME280;31495;42.740;22.908;2023-03-21T02:58:22;92899.22;;;9.52;53.90
45793;BME280;31495;42.740;22.908;2023-03-21T02:59:24;92887.63;;;9.36;53.85
45793;BME280;31495;42.740;22.908;2023-03-21T03:00:27;92934.50;;;9.65;53.79
45793;BME280;31495;42.740;22.908;2023-03-21T03:01:27;92928.34;;;9.66;53.61
45793;BME280;31495;42.740;22.908;2023-03-21T03:02:27;92903.19;;;9.55;53.36
45793;BME280;31495;42.740;22.908;2023-03-21T03:03:27;92894.91;;;9.46;53.65
45793;BME280;31495;42.740;22.908;2023-03-21T03:04:27;92895.38;;;9.36;53.83
45793;BME280;31495;42.740;22.908;2023-03-21T03:05:29;92931.06;;;9.46;54.05
45793;BME280;31495;42.740;22.908;2023-03-21T03:06:42;92923.56;;;9.38;54.51
45793;BME280;31495;42.740;22.908;2023-03-21T03:08:20;92923.13;;;9.41;54.44
45793;BME280;31495;42.740;22.908;2023-03-21T03:11:05;92931.94;;;9.33;54.82
45793;BME280;31495;42.740;22.908;2023-03-21T03:13:37;92910.19;;;9.09;55.74
45793;BME280;31495;42.740;22.908;2023-03-21T03:14:51;92931.34;;;9.25;55.24
45793;BME280;31495;42.740;22.908;2023-03-21T03:17:50;92924.13;;;9.01;55.80
45793;BME280;31495;42.740;22.908;2023-03-21T03:18:54;92909.06;;;8.92;55.87
45793;BME280;31495;42.740;22.908;2023-03-21T03:20:07;92912.88;;;8.89;56.38
45793;BME280;31495;42.740;22.908;2023-03-21T03:22:23;92932.50;;;8.97;56.99
45793;BME280;31495;42.740;22.908;2023-03-21T03:23:32;92910.31;;;8.82;56.73
45793;BME280;31495;42.740;22.908;2023-03-21T03:25:54;92896.28;;;8.65;57.22
45793;BME280;31495;42.740;22.908;2023-03-21T03:27:03;92905.59;;;8.66;57.63
45793;BME280;31495;42.740;22.908;2023-03-21T03:28:06;92898.28;;;8.56;57.80
45793;BME280;31495;42.740;22.908;2023-03-21T03:29:09;92860.25;;;8.32;57.73
45793;BME280;31495;42.740;22.908;2023-03-21T03:30:11;92903.22;;;8.64;57.50
45793;BME280;31495;42.740;22.908;2023-03-21T03:31:13;92930.56;;;8.72;57.72
45793;BME280;31495;42.740;22.908;2023-03-21T03:32:25;92903.06;;;8.53;57.90
45793;BME280;31495;42.740;22.908;2023-03-21T03:33:29;92912.34;;;8.60;58.13
45793;BME280;31495;42.740;22.908;2023-03-21T03:34:34;92933.56;;;8.69;58.35
45793;BME280;31495;42.740;22.908;2023-03-21T03:35:38;92934.56;;;8.68;57.84
45793;BME280;31495;42.740;22.908;2023-03-21T03:36:40;92917.31;;;8.55;58.50
45793;BME280;31495;42.740;22.908;2023-03-21T03:37:41;92917.31;;;8.55;58.27
45793;BME280;31495;42.740;22.908;2023-03-21T03:38:45;92904.44;;;8.49;58.44
45793;BME280;31495;42.740;22.908;2023-03-21T03:39:49;92912.16;;;8.55;57.98
45793;BME280;31495;42.740;22.908;2023-03-21T03:40:55;92926.47;;;8.58;58.30
45793;BME280;31495;42.740;22.908;2023-03-21T03:42:14;92887.78;;;8.38;58.19
45793;BME280;31495;42.740;22.908;2023-03-21T03:43:20;92895.94;;;8.48;58.02
45793;BME280;31495;42.740;22.908;2023-03-21T03:44:23;92901.50;;;8.45;58.00
45793;BME280;31495;42.740;22.908;2023-03-21T03:45:29;92904.06;;;8.52;57.77
45793;BME280;31495;42.740;22.908;2023-03-21T03:46:39;92881.06;;;8.37;57.34
45793;BME280;31495;42.740;22.908;2023-03-21T03:47:53;92883.25;;;8.33;56.97
45793;BME280;31495;42.740;22.908;2023-03-21T03:49:00;92881.06;;;8.37;56.98
45793;BME280;31495;42.740;22.908;2023-03-21T03:50:29;92871.34;;;8.32;57.23
45793;BME280;31495;42.740;22.908;2023-03-21T03:51:44;92866.38;;;8.31;57.84
45793;BME280;31495;42.740;22.908;2023-03-21T03:52:58;92866.78;;;8.34;57.54
45793;BME280;31495;42.740;22.908;2023-03-21T03:54:03;92907.22;;;8.54;57.54
45793;BME280;31495;42.740;22.908;2023-03-21T03:55:05;92860.66;;;8.22;57.69
45793;BME280;31495;42.740;22.908;2023-03-21T03:56:06;92903.88;;;8.46;57.98
45793;BME280;31495;42.740;22.908;2023-03-21T03:57:08;92905.06;;;8.44;57.96
45793;BME280;31495;42.740;22.908;2023-03-21T03:58:10;92895.75;;;8.36;58.30
45793;BME280;31495;42.740;22.908;2023-03-21T03:59:10;92881.84;;;8.31;58.22
45793;BME280;31495;42.740;22.908;2023-03-21T04:00:11;92876.31;;;8.27;58.24
45793;BME280;31495;42.740;22.908;2023-03-21T04:01:11;92883.06;;;8.35;58.31
45793;BME280;31495;42.740;22.908;2023-03-21T04:02:12;92904.28;;;8.43;58.41
45793;BME280;31495;42.740;22.908;2023-03-21T04:03:12;92875.72;;;8.25;58.46
45793;BME280;31495;42.740;22.908;2023-03-21T04:04:13;92845.63;;;8.05;58.74
45793;BME280;31495;42.740;22.908;2023-03-21T04:05:15;92873.75;;;8.20;58.79
45793;BME280;31495;42.740;22.908;2023-03-21T04:06:19;92882.44;;;8.26;58.51
45793;BME280;31495;42.740;22.908;2023-03-21T04:07:20;92877.69;;;8.23;58.51
45793;BME280;31495;42.740;22.908;2023-03-21T04:08:20;92875.13;;;8.16;58.65
45793;BME280;31495;42.740;22.908;2023-03-21T04:09:21;92867.03;;;8.13;58.56
45793;BME280;31495;42.740;22.908;2023-03-21T04:10:21;92836.91;;;8.00;58.55
45793;BME280;31495;42.740;22.908;2023-03-21T04:11:21;92876.50;;;8.25;58.33
45793;BME280;31495;42.740;22.908;2023-03-21T04:12:21;92888.22;;;8.28;58.05
45793;BME280;31495;42.740;22.908;2023-03-21T04:13:20;92881.09;;;8.23;58.20
45793;BME280;31495;42.740;22.908;2023-03-21T04:14:20;92866.03;;;8.14;58.62
45793;BME280;31495;42.740;22.908;2023-03-21T04:15:19;92859.50;;;8.04;58.55
45793;BME280;31495;42.740;22.908;2023-03-21T04:16:19;92855.34;;;7.97;58.34
45793;BME280;31495;42.740;22.908;2023-03-21T04:17:18;92867.03;;;7.99;58.44
45793;BME280;31495;42.740;22.908;2023-03-21T04:18:18;92893.19;;;8.16;58.10
45793;BME280;31495;42.740;22.908;2023-03-21T04:19:18;92902.88;;;8.27;58.57
45793;BME280;31495;42.740;22.908;2023-03-21T04:20:17;92847.84;;;7.75;58.26
45793;BME280;31495;42.740;22.908;2023-03-21T04:21:17;92872.97;;;8.00;58.56
45793;BME280;31495;42.740;22.908;2023-03-21T04:22:17;92882.31;;;7.94;58.87
45793;BME280;31495;42.740;22.908;2023-03-21T04:23:17;92866.88;;;7.87;58.54
45793;BME280;31495;42.740;22.908;2023-03-21T04:24:20;92891.63;;;8.02;58.20
45793;BME280;31495;42.740;22.908;2023-03-21T04:25:20;92848.22;;;7.72;58.30
45793;BME280;31495;42.740;22.908;2023-03-21T04:26:21;92889.84;;;8.02;58.69
45793;BME280;31495;42.740;22.908;2023-03-21T04:27:21;92875.75;;;7.85;58.45
45793;BME280;31495;42.740;22.908;2023-03-21T04:28:20;92897.97;;;7.99;58.15
45793;BME280;31495;42.740;22.908;2023-03-21T04:29:20;92852.59;;;7.71;58.65
45793;BME280;31495;42.740;22.908;2023-03-21T04:30:19;92902.53;;;7.97;58.96
45793;BME280;31495;42.740;22.908;2023-03-21T04:31:19;92865.09;;;7.75;58.62
45793;BME280;31495;42.740;22.908;2023-03-21T04:32:18;92900.72;;;7.98;58.81
45793;BME280;31495;42.740;22.908;2023-03-21T04:33:23;92884.09;;;7.67;59.87
45793;BME280;31495;42.740;22.908;2023-03-21T04:34:24;92914.59;;;7.83;59.75
45793;BME280;31495;42.740;22.908;2023-03-21T04:35:26;92900.75;;;7.78;59.49
45793;BME280;31495;42.740;22.908;2023-03-21T04:36:27;92910.03;;;7.85;59.51
45793;BME280;31495;42.740;22.908;2023-03-21T04:37:31;92887.88;;;7.64;59.87
45793;BME280;31495;42.740;22.908;2023-03-21T04:38:32;92877.16;;;7.61;59.67
45793;BME280;31495;42.740;22.908;2023-03-21T04:39:31;92883.91;;;7.62;59.51
45793;BME280;31495;42.740;22.908;2023-03-21T04:40:31;92860.91;;;7.53;59.60
45793;BME280;31495;42.740;22.908;2023-03-21T04:41:31;92884.69;;;7.69;59.57
45793;BME280;31495;42.740;22.908;2023-03-21T04:42:30;92875.19;;;7.56;59.37
45793;BME280;31495;42.740;22.908;2023-03-21T04:43:31;92900.34;;;7.67;59.59
45793;BME280;31495;42.740;22.908;2023-03-21T04:44:30;92891.81;;;7.67;59.48
45793;BME280;31495;42.740;22.908;2023-03-21T04:45:30;92878.16;;;7.53;59.51
45793;BME280;31495;42.740;22.908;2023-03-21T04:46:29;92889.22;;;7.53;59.34
45793;BME280;31495;42.740;22.908;2023-03-21T04:47:29;92876.16;;;7.48;59.46
45793;BME280;31495;42.740;22.908;2023-03-21T04:48:29;92921.16;;;7.79;59.46
45793;BME280;31495;42.740;22.908;2023-03-21T04:49:28;92903.72;;;7.68;59.52
45793;BME280;31495;42.740;22.908;2023-03-21T04:50:29;92893.81;;;7.58;59.59
45793;BME280;31495;42.740;22.908;2023-03-21T04:51:30;92887.66;;;7.59;59.37
45793;BME280;31495;42.740;22.908;2023-03-21T04:52:29;92919.34;;;7.80;59.41
45793;BME280;31495;42.740;22.908;2023-03-21T04:53:29;92849.41;;;7.29;59.71
45793;BME280;31495;42.740;22.908;2023-03-21T04:54:28;92896.56;;;7.57;59.79
45793;BME280;31495;42.740;22.908;2023-03-21T04:55:28;92903.31;;;7.58;59.84
45793;BME280;31495;42.740;22.908;2023-03-21T04:56:29;92874.38;;;7.42;59.95
45793;BME280;31495;42.740;22.908;2023-03-21T04:57:30;92912.41;;;7.67;59.92
45793;BME280;31495;42.740;22.908;2023-03-21T04:58:30;92924.72;;;7.78;60.06
45793;BME280;31495;42.740;22.908;2023-03-21T04:59:29;92889.03;;;7.48;59.89
45793;BME280;31495;42.740;22.908;2023-03-21T05:00:29;92896.97;;;7.60;60.01
45793;BME280;31495;42.740;22.908;2023-03-21T05:01:28;92920.94;;;7.74;60.18
45793;BME280;31495;42.740;22.908;2023-03-21T05:02:28;92920.94;;;7.67;60.11
45793;BME280;31495;42.740;22.908;2023-03-21T05:03:28;92897.94;;;7.52;60.43
45793;BME280;31495;42.740;22.908;2023-03-21T05:04:32;92913.81;;;7.63;60.43
45793;BME280;31495;42.740;22.908;2023-03-21T05:05:32;92857.72;;;7.25;60.43
45793;BME280;31495;42.740;22.908;2023-03-21T05:06:32;92923.31;;;7.69;60.40
45793;BME280;31495;42.740;22.908;2023-03-21T05:07:32;92929.47;;;7.75;60.20
45793;BME280;31495;42.740;22.908;2023-03-21T05:08:31;92882.91;;;7.49;59.64
45793;BME280;31495;42.740;22.908;2023-03-21T05:09:31;92881.13;;;7.50;59.68
45793;BME280;31495;42.740;22.908;2023-03-21T05:10:30;92898.94;;;7.58;59.75
45793;BME280;31495;42.740;22.908;2023-03-21T05:11:32;92899.34;;;7.55;59.64
45793;BME280;31495;42.740;22.908;2023-03-21T05:12:34;92892.19;;;7.44;59.85
45793;BME280;31495;42.740;22.908;2023-03-21T05:13:34;92917.75;;;7.65;59.83
45793;BME280;31495;42.740;22.908;2023-03-21T05:14:33;92884.09;;;7.53;59.90
45793;BME280;31495;42.740;22.908;2023-03-21T05:15:33;92913.00;;;7.69;59.62
45793;BME280;31495;42.740;22.908;2023-03-21T05:16:33;92905.91;;;7.71;59.88
45793;BME280;31495;42.740;22.908;2023-03-21T05:17:34;92927.88;;;7.87;59.74
45793;BME280;31495;42.740;22.908;2023-03-21T05:18:34;92911.03;;;7.78;59.74
45793;BME280;31495;42.740;22.908;2023-03-21T05:19:36;92912.03;;;7.83;60.12
45793;BME280;31495;42.740;22.908;2023-03-21T05:20:39;92930.06;;;7.97;59.88
45793;BME280;31495;42.740;22.908;2023-03-21T05:21:42;92894.19;;;7.75;60.26
45793;BME280;31495;42.740;22.908;2023-03-21T05:22:42;92893.59;;;7.73;60.34
45793;BME280;31495;42.740;22.908;2023-03-21T05:23:44;92887.66;;;7.66;60.34
45793;BME280;31495;42.740;22.908;2023-03-21T05:24:44;92836.72;;;7.34;60.53
45793;BME280;31495;42.740;22.908;2023-03-21T05:25:48;92896.38;;;7.78;60.71
45793;BME280;31495;42.740;22.908;2023-03-21T05:26:48;92873.97;;;7.72;60.71
45793;BME280;31495;42.740;22.908;2023-03-21T05:27:50;92853.97;;;7.54;60.72
45793;BME280;31495;42.740;22.908;2023-03-21T05:28:52;92878.16;;;7.80;60.37
45793;BME280;31495;42.740;22.908;2023-03-21T05:29:51;92892.63;;;7.94;60.36
45793;BME280;31495;42.740;22.908;2023-03-21T05:30:51;92910.63;;;8.07;60.55
45793;BME280;31495;42.740;22.908;2023-03-21T05:31:50;92920.75;;;7.96;61.09
45793;BME280;31495;42.740;22.908;2023-03-21T05:32:50;92921.34;;;7.98;61.34
45793;BME280;31495;42.740;22.908;2023-03-21T05:33:49;92885.69;;;7.81;60.98
45793;BME280;31495;42.740;22.908;2023-03-21T05:34:49;92910.84;;;8.06;61.03
45793;BME280;31495;42.740;22.908;2023-03-21T05:35:51;92869.25;;;7.82;60.99
45793;BME280;31495;42.740;22.908;2023-03-21T05:36:51;92900.72;;;8.11;60.74
45793;BME280;31495;42.740;22.908;2023-03-21T05:37:51;92892.59;;;8.07;60.79
45793;BME280;31495;42.740;22.908;2023-03-21T05:38:51;92858.53;;;7.92;60.55
45793;BME280;31495;42.740;22.908;2023-03-21T05:39:50;92892.19;;;8.17;60.57
45793;BME280;31495;42.740;22.908;2023-03-21T05:40:50;92898.09;;;8.31;59.58
45793;BME280;31495;42.740;22.908;2023-03-21T05:41:50;92894.94;;;8.36;58.98
45793;BME280;31495;42.740;22.908;2023-03-21T05:42:50;92923.28;;;8.49;58.89
45793;BME280;31495;42.740;22.908;2023-03-21T05:43:49;92889.63;;;8.17;59.36
45793;BME280;31495;42.740;22.908;2023-03-21T05:44:48;92906.47;;;8.26;59.60
45793;BME280;31495;42.740;22.908;2023-03-21T05:45:48;92895.72;;;8.29;59.50
45793;BME280;31495;42.740;22.908;2023-03-21T05:46:47;92902.06;;;8.34;59.72
45793;BME280;31495;42.740;22.908;2023-03-21T05:47:47;92906.22;;;8.41;59.83
45793;BME280;31495;42.740;22.908;2023-03-21T05:48:46;92903.28;;;8.44;59.50
45793;BME280;31495;42.740;22.908;2023-03-21T05:49:46;92878.88;;;8.34;59.08
45793;BME280;31495;42.740;22.908;2023-03-21T05:50:45;92872.31;;;8.31;58.34
45793;BME280;31495;42.740;22.908;2023-03-21T05:51:45;92884.03;;;8.47;58.50
45793;BME280;31495;42.740;22.908;2023-03-21T05:52:44;92908.75;;;8.75;58.25
45793;BME280;31495;42.740;22.908;2023-03-21T05:53:44;92881.78;;;8.64;57.90
45793;BME280;31495;42.740;22.908;2023-03-21T05:54:43;92878.22;;;8.65;57.77
45793;BME280;31495;42.740;22.908;2023-03-21T05:55:42;92910.88;;;8.91;57.46
45793;BME280;31495;42.740;22.908;2023-03-21T05:56:42;92913.00;;;9.01;57.03
45793;BME280;31495;42.740;22.908;2023-03-21T05:57:42;92875.75;;;8.83;57.10